sensor_id;sensor_type;location;lat;lon;timestamp;pressure;altitude;pressure_sealevel;temperature;humidity
64368;BME280;50692;53.314;-6.300;2023-02-23T00:00:15;101947.28;;;6.15;73.35
64368;BME280;50692;53.314;-6.300;2023-02-23T00:03:07;101946.44;;;6.12;73.50
64368;BME280;50692;53.314;-6.300;2023-02-23T00:05:53;101953.50;;;6.08;73.76
64368;BME280;50692;53.314;-6.300;2023-02-23T00:08:39;101961.41;;;6.07;73.77
64368;BME280;50692;53.314;-6.300;2023-02-23T00:11:26;101954.47;;;6.01;73.99
64368;BME280;50692;53.314;-6.300;2023-02-23T00:14:12;101948.50;;;5.90;74.28
64368;BME280;50692;53.314;-6.300;2023-02-23T00:16:58;101959.78;;;5.98;74.12
64368;BME280;50692;53.314;-6.300;2023-02-23T00:19:46;101969.44;;;5.94;74.36
64368;BME280;50692;53.314;-6.300;2023-02-23T00:22:33;101968.59;;;5.94;74.04
64368;BME280;50692;53.314;-6.300;2023-02-23T00:25:19;101966.84;;;5.90;74.53
64368;BME280;50692;53.314;-6.300;2023-02-23T00:28:06;101966.84;;;5.90;74.31
64368;BME280;50692;53.314;-6.300;2023-02-23T00:30:51;101975.63;;;5.87;74.42
64368;BME280;50692;53.314;-6.300;2023-02-23T00:33:38;101980.06;;;5.84;74.97
64368;BME280;50692;53.314;-6.300;2023-02-23T00:36:30;101980.13;;;5.79;75.01
64368;BME280;50692;53.314;-6.300;2023-02-23T00:39:17;101989.81;;;5.74;75.11
64368;BME280;50692;53.314;-6.300;2023-02-23T00:42:06;101984.59;;;5.69;75.06
64368;BME280;50692;53.314;-6.300;2023-02-23T00:44:52;101995.09;;;5.71;75.27
64368;BME280;50692;53.314;-6.300;2023-02-23T00:47:39;101995.13;;;5.68;75.90
64368;BME280;50692;53.314;-6.300;2023-02-23T00:50:26;102001.22;;;5.71;75.77
64368;BME280;50692;53.314;-6.300;2023-02-23T00:53:12;102004.78;;;5.66;76.09
64368;BME280;50692;53.314;-6.300;2023-02-23T00:55:58;101988.28;;;5.56;76.34
64368;BME280;50692;53.314;-6.300;2023-02-23T00:58:44;101998.66;;;5.67;76.38
64368;BME280;50692;53.314;-6.300;2023-02-23T01:01:30;101996.06;;;5.64;76.39
64368;BME280;50692;53.314;-6.300;2023-02-23T01:04:15;102007.41;;;5.64;76.30
64368;BME280;50692;53.314;-6.300;2023-02-23T01:07:01;102005.69;;;5.62;76.28
64368;BME280;50692;53.314;-6.300;2023-02-23T01:09:51;102016.22;;;5.59;76.29
64368;BME280;50692;53.314;-6.300;2023-02-23T01:12:36;102018.81;;;5.63;76.04
64368;BME280;50692;53.314;-6.300;2023-02-23T01:15:22;102018.81;;;5.63;75.91
64368;BME280;50692;53.314;-6.300;2023-02-23T01:18:09;102022.34;;;5.59;75.67
64368;BME280;50692;53.314;-6.300;2023-02-23T01:20:55;102029.41;;;5.56;75.87
64368;BME280;50692;53.314;-6.300;2023-02-23T01:23:41;102022.31;;;5.61;75.60
64368;BME280;50692;53.314;-6.300;2023-02-23T01:26:29;102030.19;;;5.61;75.16
64368;BME280;50692;53.314;-6.300;2023-02-23T01:29:17;102030.19;;;5.61;75.15
64368;BME280;50692;53.314;-6.300;2023-02-23T01:32:02;102020.63;;;5.55;74.62
64368;BME280;50692;53.314;-6.300;2023-02-23T01:34:48;102018.94;;;5.52;74.42
64368;BME280;50692;53.314;-6.300;2023-02-23T01:37:35;102032.88;;;5.56;74.09
64368;BME280;50692;53.314;-6.300;2023-02-23T01:40:26;102029.53;;;5.42;74.16
64368;BME280;50692;53.314;-6.300;2023-02-23T01:43:18;102037.34;;;5.46;73.92
64368;BME280;50692;53.314;-6.300;2023-02-23T01:46:10;102039.16;;;5.41;73.73
64368;BME280;50692;53.314;-6.300;2023-02-23T01:48:56;102042.69;;;5.39;73.45
64368;BME280;50692;53.314;-6.300;2023-02-23T01:51:46;102036.63;;;5.32;73.50
64368;BME280;50692;53.314;-6.300;2023-02-23T01:54:35;102054.13;;;5.32;73.38
64368;BME280;50692;53.314;-6.300;2023-02-23T01:57:23;102058.56;;;5.23;73.72
64368;BME280;50692;53.314;-6.300;2023-02-23T02:00:11;102058.66;;;5.13;73.95
64368;BME280;50692;53.314;-6.300;2023-02-23T02:03:01;102063.94;;;5.08;74.53
64368;BME280;50692;53.314;-6.300;2023-02-23T02:05:53;102054.38;;;5.01;74.40
64368;BME280;50692;53.314;-6.300;2023-02-23T02:08:45;102058.78;;;4.97;74.88
64368;BME280;50692;53.314;-6.300;2023-02-23T02:11:33;102057.03;;;4.96;74.62
64368;BME280;50692;53.314;-6.300;2023-02-23T02:14:26;102065.72;;;5.06;74.46
64368;BME280;50692;53.314;-6.300;2023-02-23T02:18:32;102070.06;;;5.09;74.43
64368;BME280;50692;53.314;-6.300;2023-02-23T02:36:51;102085.72;;;5.15;73.44
64368;BME280;50692;53.314;-6.300;2023-02-23T02:43:13;102083.16;;;5.07;73.37
64368;BME280;50692;53.314;-6.300;2023-02-23T02:46:02;102092.84;;;4.99;74.32
64368;BME280;50692;53.314;-6.300;2023-02-23T02:52:20;102080.66;;;4.90;74.86
64368;BME280;50692;53.314;-6.300;2023-02-23T02:55:21;102088.59;;;4.87;74.62
64368;BME280;50692;53.314;-6.300;2023-02-23T02:58:10;102086.84;;;4.81;74.99
64368;BME280;50692;53.314;-6.300;2023-02-23T03:01:05;102084.25;;;4.78;75.33
64368;BME280;50692;53.314;-6.300;2023-02-23T03:04:24;102093.81;;;4.82;75.48
64368;BME280;50692;53.314;-6.300;2023-02-23T03:07:34;102095.63;;;4.77;75.43
64368;BME280;50692;53.314;-6.300;2023-02-23T03:10:41;102098.25;;;4.74;75.45
64368;BME280;50692;53.314;-6.300;2023-02-23T03:14:09;102094.75;;;4.75;75.38
64368;BME280;50692;53.314;-6.300;2023-02-23T03:17:34;102085.25;;;4.61;75.51
64368;BME280;50692;53.314;-6.300;2023-02-23T03:20:45;102096.56;;;4.67;75.33
64368;BME280;50692;53.314;-6.300;2023-02-23T03:27:28;102104.41;;;4.67;75.51
64368;BME280;50692;53.314;-6.300;2023-02-23T03:34:11;102115.75;;;4.68;75.53
64368;BME280;50692;53.314;-6.300;2023-02-23T03:37:23;102102.72;;;4.63;75.44
64368;BME280;50692;53.314;-6.300;2023-02-23T03:40:36;102106.22;;;4.62;75.58
64368;BME280;50692;53.314;-6.300;2023-02-23T03:43:47;102110.56;;;4.62;75.58
64368;BME280;50692;53.314;-6.300;2023-02-23T03:46:54;102110.59;;;4.54;75.61
64368;BME280;50692;53.314;-6.300;2023-02-23T03:50:03;102120.22;;;4.55;75.65
64368;BME280;50692;53.314;-6.300;2023-02-23T03:53:11;102122.00;;;4.51;75.50
64368;BME280;50692;53.314;-6.300;2023-02-23T03:56:22;102115.91;;;4.45;76.15
64368;BME280;50692;53.314;-6.300;2023-02-23T03:59:33;102124.66;;;4.38;76.97
64368;BME280;50692;53.314;-6.300;2023-02-23T04:02:40;102110.69;;;4.36;76.72
64368;BME280;50692;53.314;-6.300;2023-02-23T04:05:47;102128.13;;;4.40;77.13
64368;BME280;50692;53.314;-6.300;2023-02-23T04:08:58;102122.91;;;4.40;77.34
64368;BME280;50692;53.314;-6.300;2023-02-23T04:18:08;102130.78;;;4.29;77.59
64368;BME280;50692;53.314;-6.300;2023-02-23T04:20:57;102139.53;;;4.31;77.70
64368;BME280;50692;53.314;-6.300;2023-02-23T04:23:43;102148.28;;;4.30;77.43
64368;BME280;50692;53.314;-6.300;2023-02-23T04:26:29;102145.63;;;4.28;77.63
64368;BME280;50692;53.314;-6.300;2023-02-23T04:29:15;102149.16;;;4.24;77.45
64368;BME280;50692;53.314;-6.300;2023-02-23T04:32:01;102140.41;;;4.25;77.39
64368;BME280;50692;53.314;-6.300;2023-02-23T04:34:46;102157.84;;;4.31;76.86
64368;BME280;50692;53.314;-6.300;2023-02-23T04:37:32;102155.25;;;4.28;77.03
64368;BME280;50692;53.314;-6.300;2023-02-23T04:40:18;102151.75;;;4.26;77.14
64368;BME280;50692;53.314;-6.300;2023-02-23T04:43:04;102156.13;;;4.21;77.24
64368;BME280;50692;53.314;-6.300;2023-02-23T04:45:50;102156.19;;;4.13;77.84
64368;BME280;50692;53.314;-6.300;2023-02-23T04:48:36;102157.03;;;4.11;77.87
64368;BME280;50692;53.314;-6.300;2023-02-23T04:51:22;102146.59;;;4.09;77.72
64368;BME280;50692;53.314;-6.300;2023-02-23T04:54:08;102151.81;;;4.07;77.63
64368;BME280;50692;53.314;-6.300;2023-02-23T04:56:54;102153.53;;;4.15;77.25
64368;BME280;50692;53.314;-6.300;2023-02-23T04:59:40;102153.53;;;4.21;76.81
64368;BME280;50692;53.314;-6.300;2023-02-23T05:02:26;102161.38;;;4.21;76.19
64368;BME280;50692;53.314;-6.300;2023-02-23T05:05:11;102162.28;;;4.11;76.36
64368;BME280;50692;53.314;-6.300;2023-02-23T05:07:57;102165.75;;;4.14;76.35
64368;BME280;50692;53.314;-6.300;2023-02-23T05:10:44;102171.00;;;4.16;76.40
64368;BME280;50692;53.314;-6.300;2023-02-23T05:13:30;102160.53;;;4.09;76.64
64368;BME280;50692;53.314;-6.300;2023-02-23T05:16:16;102162.28;;;4.12;76.22
64368;BME280;50692;53.314;-6.300;2023-02-23T05:19:02;102156.16;;;4.15;76.24
64368;BME280;50692;53.314;-6.300;2023-02-23T05:21:48;102160.53;;;4.14;76.12
64368;BME280;50692;53.314;-6.300;2023-02-23T05:24:35;102150.94;;;4.13;76.21
64368;BME280;50692;53.314;-6.300;2023-02-23T05:27:21;102139.59;;;4.13;75.86
64368;BME280;50692;53.314;-6.300;2023-02-23T05:30:07;102135.22;;;4.12;75.66
64368;BME280;50692;53.314;-6.300;2023-02-23T05:32:54;102132.66;;;4.02;75.65
64368;BME280;50692;53.314;-6.300;2023-02-23T05:35:40;102124.78;;;4.04;75.82
64368;BME280;50692;53.314;-6.300;2023-02-23T05:38:26;102133.50;;;4.04;75.54
64368;BME280;50692;53.314;-6.300;2023-02-23T05:41:15;102148.38;;;3.99;75.72
64368;BME280;50692;53.314;-6.300;2023-02-23T05:44:01;102148.38;;;3.93;75.48
64368;BME280;50692;53.314;-6.300;2023-02-23T05:46:47;102151.88;;;3.91;75.66
64368;BME280;50692;53.314;-6.300;2023-02-23T05:49:33;102153.63;;;3.79;76.13
64368;BME280;50692;53.314;-6.300;2023-02-23T05:52:19;102158.00;;;3.77;76.35
64368;BME280;50692;53.314;-6.300;2023-02-23T05:55:05;102156.28;;;3.67;76.68
64368;BME280;50692;53.314;-6.300;2023-02-23T05:57:51;102157.16;;;3.55;76.99
64368;BME280;50692;53.314;-6.300;2023-02-23T06:00:37;102149.31;;;3.42;77.36
64368;BME280;50692;53.314;-6.300;2023-02-23T06:03:22;102151.06;;;3.43;77.43
64368;BME280;50692;53.314;-6.300;2023-02-23T06:06:08;102157.16;;;3.39;77.88
64368;BME280;50692;53.314;-6.300;2023-02-23T06:08:54;102151.94;;;3.34;77.87
64368;BME280;50692;53.314;-6.300;2023-02-23T06:11:40;102153.69;;;3.27;78.48
64368;BME280;50692;53.314;-6.300;2023-02-23T06:14:26;102150.19;;;3.18;78.82
64368;BME280;50692;53.314;-6.300;2023-02-23T06:17:12;102150.19;;;3.18;78.88
64368;BME280;50692;53.314;-6.300;2023-02-23T06:19:57;102144.09;;;3.11;79.32
64368;BME280;50692;53.314;-6.300;2023-02-23T06:22:46;102153.69;;;3.20;79.09
64368;BME280;50692;53.314;-6.300;2023-02-23T06:25:32;102141.47;;;3.17;79.16
64368;BME280;50692;53.314;-6.300;2023-02-23T06:28:18;102155.41;;;3.13;79.28
64368;BME280;50692;53.314;-6.300;2023-02-23T06:31:04;102147.56;;;3.15;79.51
64368;BME280;50692;53.314;-6.300;2023-02-23T06:33:51;102137.13;;;3.07;79.42
64368;BME280;50692;53.314;-6.300;2023-02-23T06:36:37;102144.97;;;3.10;79.50
64368;BME280;50692;53.314;-6.300;2023-02-23T06:39:22;102138.00;;;3.03;79.84
64368;BME280;50692;53.314;-6.300;2023-02-23T06:42:08;102143.22;;;3.06;79.52
64368;BME280;50692;53.314;-6.300;2023-02-23T06:44:54;102149.31;;;3.08;79.70
64368;BME280;50692;53.314;-6.300;2023-02-23T06:47:40;102154.53;;;3.08;79.77
64368;BME280;50692;53.314;-6.300;2023-02-23T06:50:26;102167.59;;;3.08;79.74
64368;BME280;50692;53.314;-6.300;2023-02-23T06:53:12;102167.59;;;3.06;79.82
64368;BME280;50692;53.314;-6.300;2023-02-23T06:55:58;102173.69;;;3.04;79.87
64368;BME280;50692;53.314;-6.300;2023-02-23T06:58:44;102169.34;;;3.01;80.18
64368;BME280;50692;53.314;-6.300;2023-02-23T07:01:30;102184.13;;;3.01;80.52
64368;BME280;50692;53.314;-6.300;2023-02-23T07:04:16;102176.28;;;2.96;80.52
64368;BME280;50692;53.314;-6.300;2023-02-23T07:07:02;102196.34;;;2.99;80.63
64368;BME280;50692;53.314;-6.300;2023-02-23T07:09:48;102196.34;;;2.99;80.61
64368;BME280;50692;53.314;-6.300;2023-02-23T07:12:34;102197.16;;;2.93;81.15
64368;BME280;50692;53.314;-6.300;2023-02-23T07:15:20;102198.03;;;2.89;81.40
64368;BME280;50692;53.314;-6.300;2023-02-23T07:18:06;102201.56;;;2.99;81.45
64368;BME280;50692;53.314;-6.300;2023-02-23T07:20:52;102195.44;;;2.95;81.23
64368;BME280;50692;53.314;-6.300;2023-02-23T07:23:38;102208.53;;;3.06;81.23
64368;BME280;50692;53.314;-6.300;2023-02-23T07:26:23;102193.69;;;2.97;81.49
64368;BME280;50692;53.314;-6.300;2023-02-23T07:29:10;102218.09;;;3.04;81.64
64368;BME280;50692;53.314;-6.300;2023-02-23T07:31:56;102202.41;;;2.96;81.86
64368;BME280;50692;53.314;-6.300;2023-02-23T07:34:42;102220.72;;;2.98;82.60
64368;BME280;50692;53.314;-6.300;2023-02-23T07:37:28;102216.38;;;2.98;82.89
64368;BME280;50692;53.314;-6.300;2023-02-23T07:40:14;102232.91;;;3.02;83.11
64368;BME280;50692;53.314;-6.300;2023-02-23T07:43:00;102238.13;;;3.03;83.06
64368;BME280;50692;53.314;-6.300;2023-02-23T07:45:46;102239.03;;;3.08;82.92
64368;BME280;50692;53.314;-6.300;2023-02-23T07:48:32;102239.91;;;3.12;82.96
64368;BME280;50692;53.314;-6.300;2023-02-23T07:51:18;102248.63;;;3.17;82.82
64368;BME280;50692;53.314;-6.300;2023-02-23T07:54:04;102238.16;;;3.12;82.97
64368;BME280;50692;53.314;-6.300;2023-02-23T07:56:51;102253.84;;;3.17;83.11
64368;BME280;50692;53.314;-6.300;2023-02-23T07:59:37;102248.63;;;3.20;83.46
64368;BME280;50692;53.314;-6.300;2023-02-23T08:02:23;102262.56;;;3.18;83.64
64368;BME280;50692;53.314;-6.300;2023-02-23T08:05:09;102260.81;;;3.21;83.81
64368;BME280;50692;53.314;-6.300;2023-02-23T08:07:57;102276.50;;;3.24;83.90
64368;BME280;50692;53.314;-6.300;2023-02-23T08:10:43;102284.34;;;3.26;83.91
64368;BME280;50692;53.314;-6.300;2023-02-23T08:13:29;102274.78;;;3.32;84.28
64368;BME280;50692;53.314;-6.300;2023-02-23T08:16:16;102271.34;;;3.44;84.15
64368;BME280;50692;53.314;-6.300;2023-02-23T08:19:03;102277.44;;;3.57;84.60
64368;BME280;50692;53.314;-6.300;2023-02-23T08:21:49;102266.13;;;3.66;84.06
64368;BME280;50692;53.314;-6.300;2023-02-23T08:24:36;102257.41;;;3.70;84.38
64368;BME280;50692;53.314;-6.300;2023-02-23T08:27:22;102282.69;;;4.06;84.58
64368;BME280;50692;53.314;-6.300;2023-02-23T08:30:08;102287.84;;;4.38;84.40
64368;BME280;50692;53.314;-6.300;2023-02-23T08:32:54;102286.00;;;4.71;84.58
64368;BME280;50692;53.314;-6.300;2023-02-23T08:35:40;102286.72;;;5.11;83.70
64368;BME280;50692;53.314;-6.300;2023-02-23T08:38:26;102285.66;;;5.43;82.26
64368;BME280;50692;53.314;-6.300;2023-02-23T08:41:12;102274.13;;;5.65;81.32
64368;BME280;50692;53.314;-6.300;2023-02-23T08:43:58;102287.81;;;6.04;79.94
64368;BME280;50692;53.314;-6.300;2023-02-23T08:46:44;102282.41;;;6.22;78.53
64368;BME280;50692;53.314;-6.300;2023-02-23T08:49:30;102282.97;;;6.51;77.28
64368;BME280;50692;53.314;-6.300;2023-02-23T08:52:17;102278.34;;;6.74;75.52
64368;BME280;50692;53.314;-6.300;2023-02-23T08:55:03;102282.34;;;7.06;74.90
64368;BME280;50692;53.314;-6.300;2023-02-23T08:57:49;102290.00;;;7.21;72.46
64368;BME280;50692;53.314;-6.300;2023-02-23T09:00:36;102273.16;;;7.34;71.88
64368;BME280;50692;53.314;-6.300;2023-02-23T09:03:23;102284.16;;;7.61;70.93
64368;BME280;50692;53.314;-6.300;2023-02-23T09:06:14;102276.63;;;7.92;69.34
64368;BME280;50692;53.314;-6.300;2023-02-23T09:09:00;102285.09;;;8.09;67.83
64368;BME280;50692;53.314;-6.300;2023-02-23T09:11:46;102288.13;;;8.37;66.31
64368;BME280;50692;53.314;-6.300;2023-02-23T09:14:32;102289.38;;;8.64;66.23
64368;BME280;50692;53.314;-6.300;2023-02-23T09:17:19;102291.47;;;8.92;64.82
64368;BME280;50692;53.314;-6.300;2023-02-23T09:20:05;102288.19;;;9.21;64.25
64368;BME280;50692;53.314;-6.300;2023-02-23T09:22:51;102289.88;;;9.63;63.23
64368;BME280;50692;53.314;-6.300;2023-02-23T09:25:39;102278.78;;;9.84;61.79
64368;BME280;50692;53.314;-6.300;2023-02-23T09:28:27;102278.28;;;10.04;60.93
64368;BME280;50692;53.314;-6.300;2023-02-23T09:31:18;102288.19;;;10.30;60.01
64368;BME280;50692;53.314;-6.300;2023-02-23T09:34:04;102281.41;;;10.52;59.35
64368;BME280;50692;53.314;-6.300;2023-02-23T09:36:50;102285.06;;;10.79;58.19
64368;BME280;50692;53.314;-6.300;2023-02-23T09:39:36;102286.94;;;11.05;57.86
64368;BME280;50692;53.314;-6.300;2023-02-23T09:42:44;102280.41;;;11.17;55.86
64368;BME280;50692;53.314;-6.300;2023-02-23T09:45:43;102282.19;;;11.45;55.51
64368;BME280;50692;53.314;-6.300;2023-02-23T09:48:33;102283.09;;;11.72;54.82
64368;BME280;50692;53.314;-6.300;2023-02-23T09:51:20;102276.03;;;11.99;54.31
64368;BME280;50692;53.314;-6.300;2023-02-23T09:54:10;102278.19;;;12.14;53.44
64368;BME280;50692;53.314;-6.300;2023-02-23T09:57:00;102280.00;;;12.37;52.81
64368;BME280;50692;53.314;-6.300;2023-02-23T09:59:48;102284.38;;;12.63;52.33
64368;BME280;50692;53.314;-6.300;2023-02-23T10:02:37;102284.91;;;12.73;51.36
64368;BME280;50692;53.314;-6.300;2023-02-23T10:05:25;102281.97;;;12.81;51.30
64368;BME280;50692;53.314;-6.300;2023-02-23T10:18:15;102264.81;;;13.79;48.51
64368;BME280;50692;53.314;-6.300;2023-02-23T10:21:15;102269.91;;;14.05;47.66
64368;BME280;50692;53.314;-6.300;2023-02-23T10:24:28;102273.31;;;14.29;46.62
64368;BME280;50692;53.314;-6.300;2023-02-23T10:27:20;102270.13;;;14.42;46.55
64368;BME280;50692;53.314;-6.300;2023-02-23T10:33:23;102274.75;;;14.96;44.52
64368;BME280;50692;53.314;-6.300;2023-02-23T10:36:22;102267.44;;;15.01;43.74
64368;BME280;50692;53.314;-6.300;2023-02-23T10:39:13;102262.94;;;15.21;43.58
64368;BME280;50692;53.314;-6.300;2023-02-23T10:42:02;102259.00;;;15.47;43.07
64368;BME280;50692;53.314;-6.300;2023-02-23T10:44:49;102266.31;;;15.60;42.96
64368;BME280;50692;53.314;-6.300;2023-02-23T10:47:35;102272.53;;;15.80;42.37
64368;BME280;50692;53.314;-6.300;2023-02-23T10:50:22;102267.91;;;15.83;42.68
64368;BME280;50692;53.314;-6.300;2023-02-23T10:53:24;102270.03;;;15.94;41.70
64368;BME280;50692;53.314;-6.300;2023-02-23T10:56:16;102272.75;;;16.10;42.12
64368;BME280;50692;53.314;-6.300;2023-02-23T10:59:02;102277.38;;;16.41;41.24
64368;BME280;50692;53.314;-6.300;2023-02-23T11:01:48;102277.03;;;16.47;41.15
64368;BME280;50692;53.314;-6.300;2023-02-23T11:04:35;102268.53;;;16.57;40.96
64368;BME280;50692;53.314;-6.300;2023-02-23T11:07:29;102270.78;;;16.64;40.63
64368;BME280;50692;53.314;-6.300;2023-02-23T11:10:26;102257.16;;;16.53;40.34
64368;BME280;50692;53.314;-6.300;2023-02-23T11:13:21;102258.28;;;16.49;40.54
64368;BME280;50692;53.314;-6.300;2023-02-23T11:16:16;102260.19;;;16.80;40.65
64368;BME280;50692;53.314;-6.300;2023-02-23T11:19:04;102253.41;;;17.06;40.19
64368;BME280;50692;53.314;-6.300;2023-02-23T11:21:51;102246.34;;;17.05;39.37
64368;BME280;50692;53.314;-6.300;2023-02-23T11:24:39;102251.22;;;16.97;39.96
64368;BME280;50692;53.314;-6.300;2023-02-23T11:27:26;102238.72;;;16.97;39.97
64368;BME280;50692;53.314;-6.300;2023-02-23T11:30:12;102239.34;;;17.18;40.00
64368;BME280;50692;53.314;-6.300;2023-02-23T11:33:01;102242.03;;;17.64;39.12
64368;BME280;50692;53.314;-6.300;2023-02-23T11:35:59;102235.28;;;17.89;37.52
64368;BME280;50692;53.314;-6.300;2023-02-23T11:42:13;102225.69;;;18.58;34.89
64368;BME280;50692;53.314;-6.300;2023-02-23T11:51:10;102219.16;;;19.32;32.69
64368;BME280;50692;53.314;-6.300;2023-02-23T11:54:18;102209.78;;;18.98;31.91
64368;BME280;50692;53.314;-6.300;2023-02-23T11:57:05;102214.69;;;18.77;31.50
64368;BME280;50692;53.314;-6.300;2023-02-23T11:59:51;102211.81;;;18.65;31.89
64368;BME280;50692;53.314;-6.300;2023-02-23T12:02:49;102211.63;;;18.11;32.05
64368;BME280;50692;53.314;-6.300;2023-02-23T12:05:36;102202.91;;;18.65;31.56
64368;BME280;50692;53.314;-6.300;2023-02-23T12:11:26;102205.25;;;19.39;31.03
64368;BME280;50692;53.314;-6.300;2023-02-23T12:20:29;102187.78;;;19.74;28.71
64368;BME280;50692;53.314;-6.300;2023-02-23T12:23:20;102184.47;;;20.08;29.31
64368;BME280;50692;53.314;-6.300;2023-02-23T12:26:16;102175.00;;;20.41;29.21
64368;BME280;50692;53.314;-6.300;2023-02-23T12:29:30;102170.69;;;20.64;28.37
64368;BME280;50692;53.314;-6.300;2023-02-23T12:32:23;102178.78;;;20.39;28.12
64368;BME280;50692;53.314;-6.300;2023-02-23T12:38:04;102156.41;;;20.64;27.70
64368;BME280;50692;53.314;-6.300;2023-02-23T12:41:23;102151.44;;;20.94;27.29
64368;BME280;50692;53.314;-6.300;2023-02-23T12:44:38;102147.44;;;20.76;27.63
64368;BME280;50692;53.314;-6.300;2023-02-23T12:47:45;102141.91;;;21.14;27.37
64368;BME280;50692;53.314;-6.300;2023-02-23T12:50:38;102134.09;;;21.35;27.07
64368;BME280;50692;53.314;-6.300;2023-02-23T12:53:39;102139.13;;;21.51;27.22
64368;BME280;50692;53.314;-6.300;2023-02-23T13:02:51;102133.13;;;21.23;25.76
64368;BME280;50692;53.314;-6.300;2023-02-23T13:05:44;102117.53;;;21.04;26.67
64368;BME280;50692;53.314;-6.300;2023-02-23T13:08:49;102112.94;;;21.42;26.72
64368;BME280;50692;53.314;-6.300;2023-02-23T13:17:30;102118.28;;;21.88;25.54
64368;BME280;50692;53.314;-6.300;2023-02-23T13:20:37;102122.03;;;21.63;25.95
64368;BME280;50692;53.314;-6.300;2023-02-23T13:26:46;102101.25;;;21.54;25.86
64368;BME280;50692;53.314;-6.300;2023-02-23T13:30:00;102102.06;;;21.43;26.09
64368;BME280;50692;53.314;-6.300;2023-02-23T13:32:47;102094.78;;;21.68;25.86
64368;BME280;50692;53.314;-6.300;2023-02-23T13:35:34;102101.28;;;21.88;26.15
64368;BME280;50692;53.314;-6.300;2023-02-23T13:41:15;102101.19;;;21.89;26.00
64368;BME280;50692;53.314;-6.300;2023-02-23T13:44:31;102094.19;;;21.87;25.83
64368;BME280;50692;53.314;-6.300;2023-02-23T13:48:33;102094.78;;;21.68;25.74
64368;BME280;50692;53.314;-6.300;2023-02-23T13:51:19;102089.34;;;21.45;25.86
64368;BME280;50692;53.314;-6.300;2023-02-23T13:56:59;102085.63;;;21.00;26.54
64368;BME280;50692;53.314;-6.300;2023-02-23T13:59:46;102042.38;;;20.68;26.88
64368;BME280;50692;53.314;-6.300;2023-02-23T14:02:35;102096.19;;;20.66;27.38
64368;BME280;50692;53.314;-6.300;2023-02-23T14:05:24;102087.19;;;20.67;27.24
64368;BME280;50692;53.314;-6.300;2023-02-23T14:08:31;102084.22;;;20.46;27.24
64368;BME280;50692;53.314;-6.300;2023-02-23T14:11:49;102081.50;;;20.09;27.72
64368;BME280;50692;53.314;-6.300;2023-02-23T14:14:37;102078.28;;;20.04;27.99
64368;BME280;50692;53.314;-6.300;2023-02-23T14:20:20;102069.28;;;19.80;28.39
64368;BME280;50692;53.314;-6.300;2023-02-23T14:29:26;102081.75;;;19.15;29.90
64368;BME280;50692;53.314;-6.300;2023-02-23T14:35:00;102062.78;;;18.79;30.50
64368;BME280;50692;53.314;-6.300;2023-02-23T14:38:09;102075.53;;;18.19;31.31
64368;BME280;50692;53.314;-6.300;2023-02-23T14:40:55;102072.09;;;17.89;31.93
64368;BME280;50692;53.314;-6.300;2023-02-23T14:43:42;102073.06;;;17.88;32.04
64368;BME280;50692;53.314;-6.300;2023-02-23T14:46:30;102065.84;;;17.74;32.27
64368;BME280;50692;53.314;-6.300;2023-02-23T14:49:19;102063.00;;;17.63;32.81
64368;BME280;50692;53.314;-6.300;2023-02-23T14:52:27;102063.69;;;17.81;32.79
64368;BME280;50692;53.314;-6.300;2023-02-23T14:55:21;102054.69;;;18.10;32.50
64368;BME280;50692;53.314;-6.300;2023-02-23T14:58:30;102057.94;;;18.01;32.76
64368;BME280;50692;53.314;-6.300;2023-02-23T15:01:31;102049.34;;;18.10;32.61
64368;BME280;50692;53.314;-6.300;2023-02-23T15:04:28;102038.09;;;18.05;32.91
64368;BME280;50692;53.314;-6.300;2023-02-23T15:07:18;102039.03;;;17.90;33.00
64368;BME280;50692;53.314;-6.300;2023-02-23T15:10:19;102043.50;;;17.61;33.50
64368;BME280;50692;53.314;-6.300;2023-02-23T15:13:10;102022.03;;;17.48;33.72
64368;BME280;50692;53.314;-6.300;2023-02-23T15:15:59;102025.97;;;17.12;34.29
64368;BME280;50692;53.314;-6.300;2023-02-23T15:18:46;102042.34;;;17.06;34.70
64368;BME280;50692;53.314;-6.300;2023-02-23T15:21:33;102037.06;;;17.05;35.00
64368;BME280;50692;53.314;-6.300;2023-02-23T15:24:23;102034.56;;;16.87;35.14
64368;BME280;50692;53.314;-6.300;2023-02-23T15:27:19;102029.91;;;16.75;35.34
64368;BME280;50692;53.314;-6.300;2023-02-23T15:30:21;102022.06;;;16.72;35.64
64368;BME280;50692;53.314;-6.300;2023-02-23T15:33:12;102017.25;;;16.78;35.69
64368;BME280;50692;53.314;-6.300;2023-02-23T15:36:06;102015.16;;;16.68;35.65
64368;BME280;50692;53.314;-6.300;2023-02-23T15:38:53;102025.72;;;16.23;36.61
64368;BME280;50692;53.314;-6.300;2023-02-23T15:41:40;102021.38;;;15.89;37.58
64368;BME280;50692;53.314;-6.300;2023-02-23T15:44:29;102017.84;;;15.73;37.85
64368;BME280;50692;53.314;-6.300;2023-02-23T15:47:22;102032.44;;;15.48;38.65
64368;BME280;50692;53.314;-6.300;2023-02-23T15:50:18;102023.22;;;15.21;39.17
64368;BME280;50692;53.314;-6.300;2023-02-23T15:53:20;102025.84;;;14.86;39.90
64368;BME280;50692;53.314;-6.300;2023-02-23T15:56:15;102029.47;;;14.85;40.33
64368;BME280;50692;53.314;-6.300;2023-02-23T15:59:10;102026.56;;;14.72;40.74
64368;BME280;50692;53.314;-6.300;2023-02-23T16:01:58;102016.88;;;14.52;41.16
64368;BME280;50692;53.314;-6.300;2023-02-23T16:04:47;102020.19;;;14.38;41.51
64368;BME280;50692;53.314;-6.300;2023-02-23T16:07:40;102017.25;;;14.26;42.11
64368;BME280;50692;53.314;-6.300;2023-02-23T16:10:27;102015.75;;;14.20;42.15
64368;BME280;50692;53.314;-6.300;2023-02-23T16:13:20;102024.00;;;14.14;42.41
64368;BME280;50692;53.314;-6.300;2023-02-23T16:16:08;102018.97;;;13.89;43.21
64368;BME280;50692;53.314;-6.300;2023-02-23T16:19:04;102018.47;;;13.81;43.61
64368;BME280;50692;53.314;-6.300;2023-02-23T16:21:51;102023.53;;;13.66;44.24
64368;BME280;50692;53.314;-6.300;2023-02-23T16:24:38;102030.31;;;13.53;44.90
64368;BME280;50692;53.314;-6.300;2023-02-23T16:27:25;102022.44;;;13.52;45.30
64368;BME280;50692;53.314;-6.300;2023-02-23T16:30:21;102020.91;;;13.46;45.68
64368;BME280;50692;53.314;-6.300;2023-02-23T16:33:20;102025.63;;;13.19;46.58